createdAt,value
2023-05-01T00:04:35.174Z,100805.49
2023-05-01T00:09:38.391Z,100808.52
2023-05-01T00:14:42.130Z,100809.42
2023-05-01T00:19:45.326Z,100806.14
2023-05-01T00:24:49.358Z,100810.20
2023-05-01T00:29:52.671Z,100803.87
2023-05-01T00:34:57.846Z,100805.03
2023-05-01T00:40:01.253Z,100804.73
2023-05-01T00:45:04.801Z,100804.63
2023-05-01T00:50:08.720Z,100803.14
2023-05-01T00:55:12.129Z,100800.02
2023-05-01T01:00:17.067Z,100808.76
2023-05-01T01:05:24.728Z,100804.89
2023-05-01T01:10:30.073Z,100802.60
2023-05-01T01:15:38.573Z,100800.86
2023-05-01T01:20:49.171Z,100804.52
2023-05-01T01:26:10.915Z,100803.36
2023-05-01T01:31:37.082Z,100799.95
2023-05-01T01:36:58.818Z,100795.14
2023-05-01T01:42:06.764Z,100793.44
2023-05-01T01:47:14.145Z,100793.20
2023-05-01T01:52:19.081Z,100797.09
2023-05-01T01:57:24.040Z,100789.45
2023-05-01T02:02:29.611Z,100786.46
2023-05-01T02:07:33.300Z,100779.27
2023-05-01T02:12:37.904Z,100775.98
2023-05-01T02:17:41.924Z,100773.77
2023-05-01T02:22:46.565Z,100775.02
2023-05-01T02:28:10.861Z,100773.45
2023-05-01T02:33:14.064Z,100774.77
2023-05-01T02:38:17.685Z,100766.59
2023-05-01T02:43:23.074Z,100766.56
2023-05-01T02:48:28.710Z,100767.86
2023-05-01T02:53:33.325Z,100768.77
2023-05-01T02:58:37.249Z,100765.35
2023-05-01T03:03:40.195Z,100764.89
2023-05-01T03:08:43.403Z,100760.12
2023-05-01T03:13:47.734Z,100760.70
2023-05-01T03:18:50.742Z,100767.60
2023-05-01T03:23:54.156Z,100759.77
2023-05-01T03:28:57.265Z,100763.83
2023-05-01T03:34:00.166Z,100764.36
2023-05-01T03:39:04.937Z,100771.95
2023-05-01T03:44:07.808Z,100771.63
2023-05-01T03:49:10.721Z,100775.43
2023-05-01T03:54:13.739Z,100767.42
2023-05-01T03:59:16.737Z,100771.11
2023-05-01T04:04:19.659Z,100764.40
2023-05-01T04:09:22.647Z,100763.01
2023-05-01T04:14:25.961Z,100767.38
2023-05-01T04:19:28.883Z,100764.33
2023-05-01T04:24:31.869Z,100759.95
2023-05-01T04:29:34.774Z,100751.65
2023-05-01T04:34:38.288Z,100756.56
2023-05-01T04:39:41.399Z,100752.34
2023-05-01T04:44:45.873Z,100750.20
2023-05-01T04:49:48.736Z,100751.03
2023-05-01T04:54:51.645Z,100758.88
2023-05-01T04:59:54.788Z,100761.86
2023-05-01T05:04:57.964Z,100759.51
2023-05-01T05:10:00.870Z,100761.70
2023-05-01T05:15:03.885Z,100752.09
2023-05-01T05:20:07.821Z,100744.70
2023-05-01T05:25:10.913Z,100743.11
2023-05-01T05:30:14.142Z,100746.48
2023-05-01T05:35:17.238Z,100746.68
2023-05-01T05:40:20.546Z,100737.67
2023-05-01T05:45:23.961Z,100737.46
2023-05-01T05:50:26.971Z,100734.42
2023-05-01T05:55:29.988Z,100738.63
2023-05-01T06:00:33.315Z,100746.54
2023-05-01T06:05:36.431Z,100747.36
2023-05-01T06:10:43.561Z,100750.20
2023-05-01T06:15:47.151Z,100751.00
2023-05-01T06:20:50.251Z,100749.20
2023-05-01T06:25:53.139Z,100750.57
2023-05-01T06:30:56.379Z,100749.72
2023-05-01T06:36:00.248Z,100755.03
2023-05-01T06:41:05.667Z,100753.94
2023-05-01T06:46:08.648Z,100750.00
2023-05-01T06:51:15.047Z,100752.13
2023-05-01T06:56:18.038Z,100751.23
2023-05-01T07:01:21.369Z,100749.11
2023-05-01T07:06:24.487Z,100748.55
2023-05-01T07:11:27.880Z,100742.73
2023-05-01T07:16:30.929Z,100736.09
2023-05-01T07:21:33.991Z,100731.14
2023-05-01T07:26:37.817Z,100733.36
2023-05-01T07:31:42.155Z,100725.27
2023-05-01T07:36:45.363Z,100730.87
2023-05-01T07:41:48.474Z,100726.06
2023-05-01T07:46:51.690Z,100729.91
2023-05-01T07:51:55.896Z,100726.20
2023-05-01T07:56:58.923Z,100722.10
2023-05-01T08:02:02.184Z,100718.43
2023-05-01T08:07:05.252Z,100723.34
2023-05-01T08:12:08.356Z,100720.00
2023-05-01T08:17:11.569Z,100717.60
2023-05-01T08:22:14.573Z,100713.52
2023-05-01T08:27:18.092Z,100712.53
2023-05-01T08:32:21.820Z,100708.60
2023-05-01T08:37:24.931Z,100708.57
2023-05-01T08:42:29.878Z,100708.08
2023-05-01T08:47:39.722Z,100706.95
2023-05-01T08:52:44.056Z,100705.49
2023-05-01T08:57:48.725Z,100701.11
2023-05-01T09:02:52.339Z,100704.48
2023-05-01T09:07:55.451Z,100708.39
2023-05-01T09:13:04.014Z,100706.86
2023-05-01T09:18:09.271Z,100704.69
2023-05-01T09:23:12.355Z,100697.09
2023-05-01T09:28:16.046Z,100693.55
2023-05-01T09:33:19.095Z,100688.20
2023-05-01T09:38:24.675Z,100690.54
2023-05-01T09:43:29.760Z,100685.86
2023-05-01T09:48:35.690Z,100686.84
2023-05-01T09:53:40.944Z,100680.75
2023-05-01T09:58:44.770Z,100677.55
2023-05-01T10:03:54.478Z,100675.61
2023-05-01T10:08:58.050Z,100668.13
2023-05-01T10:14:11.332Z,100665.45
2023-05-01T10:19:17.000Z,100656.08
2023-05-01T10:24:20.489Z,100649.98
2023-05-01T10:29:24.732Z,100644.58
2023-05-01T10:34:28.848Z,100631.71
2023-05-01T10:39:33.109Z,100624.38
2023-05-01T10:44:36.306Z,100620.80
2023-05-01T10:50:09.005Z,100616.34
2023-05-01T10:55:34.865Z,100607.53
2023-05-01T11:00:37.848Z,100601.00
2023-05-01T11:06:05.738Z,100599.43
2023-05-01T11:11:24.104Z,100589.19
2023-05-01T11:16:42.553Z,100584.77
2023-05-01T11:21:45.993Z,100578.83
2023-05-01T11:26:49.927Z,100573.03
2023-05-01T11:31:53.233Z,100562.38
2023-05-01T11:36:56.344Z,100557.38
2023-05-01T11:42:09.910Z,100552.66
2023-05-01T11:47:13.925Z,100543.24
2023-05-01T11:52:17.239Z,100537.49
2023-05-01T11:57:20.553Z,100529.11
2023-05-01T12:02:23.939Z,100521.88
2023-05-01T12:07:27.081Z,100513.26
2023-05-01T12:12:30.494Z,100509.12
2023-05-01T12:17:33.826Z,100509.11
2023-05-01T12:22:49.325Z,100504.17
2023-05-01T12:27:52.880Z,100499.01
2023-05-01T12:32:59.209Z,100493.53
2023-05-01T12:38:12.889Z,100483.63
2023-05-01T12:43:16.997Z,100479.39
2023-05-01T12:48:20.983Z,100465.70
2023-05-01T12:53:25.957Z,100462.35
2023-05-01T12:58:37.238Z,100463.42
2023-05-01T13:03:44.988Z,100451.61
2023-05-01T13:08:48.209Z,100442.23
2023-05-01T13:13:51.319Z,100436.75
2023-05-01T13:18:54.425Z,100431.61
2023-05-01T13:23:59.800Z,100423.90
2023-05-01T13:29:05.890Z,100419.77
2023-05-01T13:34:08.976Z,100416.27
2023-05-01T13:39:21.330Z,100411.94
2023-05-01T13:44:24.507Z,100408.33
2023-05-01T13:49:27.724Z,100398.96
2023-05-01T13:54:30.729Z,100391.09
2023-05-01T13:59:45.738Z,100379.94
2023-05-01T14:04:49.441Z,100376.37
2023-05-01T14:10:00.020Z,100371.88
2023-05-01T14:15:05.325Z,100367.58
2023-05-01T14:20:08.884Z,100362.18
2023-05-01T14:25:25.431Z,100362.40
2023-05-01T14:30:38.483Z,100349.64
2023-05-01T14:35:50.066Z,100339.21
2023-05-01T14:40:53.091Z,100337.06
2023-05-01T14:45:56.356Z,100335.03
2023-05-01T14:51:00.449Z,100332.48
2023-05-01T14:56:03.649Z,100328.08
2023-05-01T15:01:06.665Z,100317.70
2023-05-01T15:06:10.298Z,100301.56
2023-05-01T15:11:14.434Z,100290.63
2023-05-01T15:16:17.572Z,100291.98
2023-05-01T15:21:20.634Z,100295.21
2023-05-01T15:26:23.643Z,100296.90
2023-05-01T15:31:26.676Z,100294.48
2023-05-01T15:36:29.749Z,100285.45
2023-05-01T15:41:32.756Z,100283.07
2023-05-01T15:46:36.683Z,100279.74
2023-05-01T15:51:39.795Z,100280.45
2023-05-01T15:56:42.805Z,100268.69
2023-05-01T16:01:45.909Z,100263.47
2023-05-01T16:06:49.256Z,100261.05
2023-05-01T16:11:52.345Z,100252.88
2023-05-01T16:16:55.368Z,100249.30
2023-05-01T16:21:58.749Z,100241.96
2023-05-01T16:27:02.227Z,100239.33
2023-05-01T16:32:06.234Z,100239.84
2023-05-01T16:37:09.202Z,100232.99
2023-05-01T16:42:13.409Z,100232.95
2023-05-01T16:47:17.130Z,100225.79
2023-05-01T16:52:20.369Z,100226.60
2023-05-01T16:57:23.473Z,100226.17
2023-05-01T17:02:26.669Z,100216.39
2023-05-01T17:07:29.815Z,100213.31
2023-05-01T17:12:32.907Z,100209.88
2023-05-01T17:17:37.269Z,100208.16
2023-05-01T17:22:40.459Z,100210.15
2023-05-01T17:27:43.664Z,100215.27
2023-05-01T17:32:46.790Z,100216.73
2023-05-01T17:37:50.187Z,100216.90
2023-05-01T17:42:53.303Z,100216.71
2023-05-01T17:47:56.369Z,100217.81
2023-05-01T17:52:59.422Z,100206.27
2023-05-01T17:58:02.523Z,100205.23
2023-05-01T18:03:06.521Z,100207.91
2023-05-01T18:08:09.660Z,100201.30
2023-05-01T18:13:13.183Z,100199.42
2023-05-01T18:18:16.410Z,100193.28
2023-05-01T18:23:19.608Z,100195.86
2023-05-01T18:28:23.018Z,100195.80
2023-05-01T18:33:26.193Z,100193.58
2023-05-01T18:38:29.353Z,100195.13
2023-05-01T18:43:32.554Z,100199.59
2023-05-01T18:48:36.297Z,100195.95
2023-05-01T18:53:39.595Z,100189.43
2023-05-01T18:58:42.811Z,100187.51
2023-05-01T19:03:46.232Z,100194.98
2023-05-01T19:08:49.322Z,100191.95
2023-05-01T19:13:52.952Z,100191.36
2023-05-01T19:18:56.260Z,100190.02
2023-05-01T19:23:59.364Z,100189.42
2023-05-01T19:29:02.374Z,100187.31
2023-05-01T19:34:05.486Z,100185.88
2023-05-01T19:39:08.490Z,100184.34
2023-05-01T19:44:11.702Z,100177.98
2023-05-01T19:49:14.708Z,100177.27
2023-05-01T19:54:17.641Z,100183.21
2023-05-01T19:59:20.936Z,100175.79
2023-05-01T20:04:24.499Z,100167.86
2023-05-01T20:09:27.671Z,100165.36
2023-05-01T20:14:33.466Z,100160.11
2023-05-01T20:19:39.724Z,100152.11
2023-05-01T20:24:43.132Z,100146.02
2023-05-01T20:29:46.132Z,100135.39
2023-05-01T20:34:49.349Z,100131.33
2023-05-01T20:39:52.350Z,100126.85
2023-05-01T20:44:55.457Z,100119.43
2023-05-01T20:49:59.003Z,100117.86
2023-05-01T20:55:03.636Z,100117.05
2023-05-01T21:00:08.287Z,100115.36
2023-05-01T21:05:11.795Z,100114.75
2023-05-01T21:10:16.734Z,100118.46
2023-05-01T21:15:20.058Z,100118.33
2023-05-01T21:20:34.323Z,100118.34
2023-05-01T21:25:37.538Z,100120.11
2023-05-01T21:30:41.148Z,100118.05
2023-05-01T21:35:46.923Z,100114.77
2023-05-01T21:40:49.940Z,100113.06
2023-05-01T21:45:53.247Z,100115.70
2023-05-01T21:50:56.967Z,100114.48
2023-05-01T21:56:00.692Z,100115.17
2023-05-01T22:01:03.941Z,100109.45
2023-05-01T22:06:07.459Z,100112.06
2023-05-01T22:11:11.046Z,100105.86
2023-05-01T22:16:14.293Z,100100.85
2023-05-01T22:21:17.577Z,100094.79
2023-05-01T22:26:20.774Z,100096.40
2023-05-01T22:31:23.920Z,100090.91
2023-05-01T22:36:26.999Z,100090.09
2023-05-01T22:41:30.207Z,100086.14
2023-05-01T22:46:33.375Z,100087.70
2023-05-01T22:51:37.538Z,100085.48
2023-05-01T22:56:40.557Z,100081.85
2023-05-01T23:01:44.630Z,100080.98
2023-05-01T23:06:47.727Z,100078.34
2023-05-01T23:11:50.907Z,100069.23
2023-05-01T23:16:54.120Z,100061.39
2023-05-01T23:22:08.775Z,100057.62
2023-05-01T23:27:12.733Z,100055.55
2023-05-01T23:32:25.103Z,100052.08
2023-05-01T23:37:28.364Z,100045.04
2023-05-01T23:42:31.885Z,100040.52
2023-05-01T23:47:35.834Z,100036.27
2023-05-01T23:52:39.025Z,100036.46
2023-05-01T23:57:42.350Z,100029.36
